Time;durP1;ratioP1;P1;durP2;ratioP2;P2;SDS_P1;SDS_P2;PMS_P1;PMS_P2;Temp;Humidity;BMP_temperature;BMP_pressure;BME280_temperature;BME280_humidity;BME280_pressure;Samples;Min_cycle;Max_cycle;Signal;HPM_P1;HPM_P2
2024/02/08 08:10:25;;;;;;;340.92;181.10;;;8.30;99.90;;;;;;5091326;22;20085;-78
2024/02/08 08:12:56;;;;;;;366.25;189.68;;;8.30;99.90;;;;;;5107598;28;20404;-78
2024/02/08 08:15:24;;;;;;;350.15;188.20;;;8.30;99.90;;;;;;5092632;28;20020;-79
2024/02/08 08:17:59;;;;;;;351.88;189.18;;;8.40;99.90;;;;;;5108474;28;20011;-78
2024/02/08 08:23:25;;;;;;;325.92;173.98;;;8.40;99.90;;;;;;5107875;28;20084;-78
2024/02/08 08:26:05;;;;;;;328.38;169.07;;;8.50;99.90;;;;;;5108690;28;20028;-78
2024/02/08 08:28:39;;;;;;;333.33;176.68;;;8.50;99.90;;;;;;5111388;28;20023;-78
2024/02/08 08:31:34;;;;;;;311.92;168.88;;;8.50;99.90;;;;;;5109182;28;20097;-78
2024/02/08 08:35:02;;;;;;;323.05;171.75;;;8.60;99.90;;;;;;5109406;27;20016;-78
2024/02/08 08:36:57;;;;;;;329.92;171.52;;;8.60;99.90;;;;;;5107488;27;20035;-78
2024/02/08 08:39:46;;;;;;;355.15;183.10;;;8.60;99.90;;;;;;5103342;28;20378;-78
2024/02/08 08:42:18;;;;;;;297.17;161.98;;;8.60;99.90;;;;;;5114305;27;20053;-78
2024/02/08 08:44:59;;;;;;;326.35;172.07;;;8.60;99.90;;;;;;5106059;28;20063;-78
2024/02/08 08:47:27;;;;;;;325.40;172.02;;;8.60;99.90;;;;;;5109533;28;20016;-78
2024/02/08 08:49:57;;;;;;;323.50;170.38;;;8.60;99.90;;;;;;5102601;28;20020;-78
2024/02/08 08:52:25;;;;;;;306.23;162.85;;;8.70;99.90;;;;;;5112909;28;20027;-78
2024/02/08 08:55:10;;;;;;;309.67;166.00;;;8.70;99.90;;;;;;5106446;28;20109;-78
2024/02/08 08:57:40;;;;;;;315.77;168.15;;;8.70;99.90;;;;;;5114826;27;20039;-78
2024/02/08 09:00:09;;;;;;;301.42;162.65;;;8.70;99.90;;;;;;5106240;28;20412;-78
2024/02/08 09:02:42;;;;;;;313.75;169.20;;;8.70;99.90;;;;;;5109743;28;20047;-78
2024/02/08 09:05:17;;;;;;;307.90;164.80;;;8.70;99.90;;;;;;5106194;28;20019;-78
2024/02/08 09:07:46;;;;;;;292.38;161.98;;;8.70;99.90;;;;;;5101656;28;20099;-78
2024/02/08 09:10:16;;;;;;;327.58;167.65;;;8.70;99.90;;;;;;5094627;28;20499;-78
2024/02/08 09:12:58;;;;;;;302.13;163.77;;;8.80;99.90;;;;;;5109993;27;20048;-78
2024/02/08 09:15:27;;;;;;;300.02;162.13;;;8.80;99.90;;;;;;5090625;28;20020;-78
2024/02/08 09:18:08;;;;;;;300.38;160.75;;;8.80;99.90;;;;;;5113517;27;20027;-79
2024/02/08 09:20:36;;;;;;;309.13;168.10;;;8.80;99.90;;;;;;5103959;28;20020;-78
2024/02/08 09:23:12;;;;;;;303.00;164.82;;;8.90;99.90;;;;;;5108947;28;20164;-78
2024/02/08 09:25:45;;;;;;;302.40;159.55;;;8.90;99.90;;;;;;5096517;28;20015;-78
2024/02/08 09:28:26;;;;;;;312.50;162.85;;;9.00;99.90;;;;;;5108541;28;20024;-78
2024/02/08 09:30:57;;;;;;;306.27;167.07;;;9.00;99.90;;;;;;5095224;28;20068;-78
2024/02/08 09:33:35;;;;;;;301.02;161.02;;;9.10;99.90;;;;;;5100631;28;20028;-78
2024/02/08 09:36:03;;;;;;;304.73;157.68;;;9.10;99.90;;;;;;5109503;27;20015;-78
2024/02/08 09:38:42;;;;;;;284.33;158.52;;;9.10;99.90;;;;;;5110511;27;20102;-79
2024/02/08 09:41:15;;;;;;;298.73;161.90;;;9.10;99.90;;;;;;5102248;28;20020;-78
2024/02/08 09:43:45;;;;;;;287.85;155.82;;;9.20;99.90;;;;;;5103891;27;20430;-78
2024/02/08 09:46:49;;;;;;;295.65;156.43;;;9.30;99.90;;;;;;5109248;27;20028;-78
2024/02/08 09:49:13;;;;;;;284.38;161.00;;;9.30;99.90;;;;;;5108688;27;20080;-78
2024/02/08 09:52:14;;;;;;;284.77;156.43;;;9.40;99.90;;;;;;5103747;27;20023;-78
2024/02/08 09:54:31;;;;;;;286.60;154.55;;;9.50;99.90;;;;;;5104459;27;20510;-78
2024/02/08 09:57:02;;;;;;;290.17;159.10;;;9.50;99.90;;;;;;5114231;27;20100;-78
2024/02/08 09:59:59;;;;;;;285.52;152.05;;;9.50;99.90;;;;;;5101261;28;20433;-78
2024/02/08 10:02:32;;;;;;;279.02;151.07;;;9.50;99.90;;;;;;5119106;27;20251;-78
2024/02/08 10:05:18;;;;;;;268.13;147.80;;;9.50;99.90;;;;;;5106146;27;20016;-78
2024/02/08 10:11:07;;;;;;;260.52;146.02;;;9.50;99.90;;;;;;5103917;27;20043;-78
2024/02/08 10:13:30;;;;;;;282.42;150.02;;;9.60;99.90;;;;;;5105852;27;20058;-78
2024/02/08 10:16:03;;;;;;;253.50;147.82;;;9.60;99.90;;;;;;5110882;27;20043;-78
2024/02/08 10:18:37;;;;;;;262.08;146.15;;;9.60;99.90;;;;;;5114030;27;20082;-78
2024/02/08 10:21:12;;;;;;;261.90;146.52;;;9.70;99.90;;;;;;5096987;27;20498;-78
2024/02/08 10:23:59;;;;;;;256.10;148.23;;;9.70;99.90;;;;;;5103978;28;20024;-78
2024/02/08 10:26:29;;;;;;;260.67;147.43;;;9.80;99.90;;;;;;5105780;27;20128;-77
2024/02/08 10:28:56;;;;;;;269.60;152.85;;;9.90;99.90;;;;;;5108275;27;20030;-77
2024/02/08 10:31:28;;;;;;;277.15;156.85;;;9.90;99.90;;;;;;5109016;27;20015;-78
2024/02/08 10:34:08;;;;;;;252.57;146.15;;;10.00;99.90;;;;;;5099961;28;20024;-78
2024/02/08 10:36:44;;;;;;;254.80;139.15;;;10.00;99.90;;;;;;5115096;27;20464;-78
2024/02/08 10:39:26;;;;;;;248.65;140.45;;;10.10;99.90;;;;;;5106203;27;20024;-78
2024/02/08 10:44:34;;;;;;;249.45;139.98;;;10.10;99.90;;;;;;5101139;28;20036;-78
2024/02/08 10:47:12;;;;;;;246.57;139.23;;;10.10;99.90;;;;;;5117968;27;20503;-78
2024/02/08 10:49:42;;;;;;;258.83;146.68;;;10.10;99.90;;;;;;5105511;27;20545;-78
2024/02/08 10:52:19;;;;;;;258.73;143.85;;;10.00;99.90;;;;;;5113955;27;20024;-78
2024/02/08 10:54:51;;;;;;;275.58;151.18;;;10.10;99.90;;;;;;5104586;27;20020;-78
2024/02/08 10:57:39;;;;;;;267.80;152.27;;;10.10;99.90;;;;;;5114278;27;20020;-78
2024/02/08 11:03:07;;;;;;;278.75;159.77;;;10.10;99.90;;;;;;5085909;27;20140;-78
2024/02/08 11:06:00;;;;;;;287.75;156.00;;;10.10;99.90;;;;;;5093508;28;21510;-78
2024/02/08 11:08:50;;;;;;;;;;;10.10;99.90;;;;;;5108052;27;20488;-78
2024/02/08 11:11:21;;;;;;;267.25;155.18;;;10.10;99.90;;;;;;5108823;27;19908;-78
2024/02/08 11:13:53;;;;;;;285.52;156.80;;;10.20;99.90;;;;;;5105113;28;20030;-78
2024/02/08 11:16:33;;;;;;;;;;;10.10;99.90;;;;;;5108719;28;20084;-78
2024/02/08 11:19:04;;;;;;;271.27;149.80;;;10.20;99.90;;;;;;5109066;28;19994;-78
2024/02/08 11:21:43;;;;;;;272.33;152.13;;;10.20;99.90;;;;;;5114066;27;20015;-78
2024/02/08 11:24:38;;;;;;;275.35;151.68;;;10.30;99.90;;;;;;5105431;28;20472;-78
2024/02/08 11:27:04;;;;;;;256.45;144.98;;;10.30;99.90;;;;;;5097263;28;20015;-78
2024/02/08 11:29:41;;;;;;;261.10;146.50;;;10.40;99.90;;;;;;5104125;28;20089;-78
2024/02/08 11:32:20;;;;;;;262.75;145.15;;;10.40;99.90;;;;;;5117847;28;20023;-78
2024/02/08 11:34:46;;;;;;;264.95;145.13;;;10.50;99.90;;;;;;5085091;28;20028;-78
2024/02/08 11:37:17;;;;;;;256.42;142.77;;;10.50;99.90;;;;;;5081605;28;20016;-78
2024/02/08 11:39:47;;;;;;;255.55;142.27;;;10.50;99.90;;;;;;5104548;28;20573;-78
2024/02/08 11:42:17;;;;;;;245.60;141.70;;;10.70;99.90;;;;;;5114368;28;20098;-78
2024/02/08 11:44:46;;;;;;;245.77;137.60;;;10.80;99.90;;;;;;5106156;28;20101;-78
2024/02/08 11:47:19;;;;;;;242.80;139.25;;;10.80;99.90;;;;;;5115257;28;20020;-78
2024/02/08 11:50:04;;;;;;;249.35;143.48;;;10.80;99.90;;;;;;5104456;28;20043;-78
2024/02/08 11:52:31;;;;;;;233.30;139.07;;;10.80;99.90;;;;;;5111866;28;20031;-78
2024/02/08 11:55:12;;;;;;;236.52;133.88;;;10.80;99.90;;;;;;5105525;28;20388;-78
2024/02/08 11:57:40;;;;;;;245.48;140.15;;;10.90;99.90;;;;;;5100623;28;20020;-78
2024/02/08 12:00:16;;;;;;;241.65;137.05;;;10.90;99.90;;;;;;5103988;28;20107;-78
2024/02/08 12:02:47;;;;;;;253.85;138.85;;;11.00;99.90;;;;;;5114854;27;20027;-78
2024/02/08 12:05:20;;;;;;;257.58;144.38;;;11.00;99.90;;;;;;5103376;28;20027;-78
2024/02/08 12:07:46;;;;;;;237.75;136.98;;;11.10;99.90;;;;;;5122552;27;20019;-78
2024/02/08 12:10:16;;;;;;;240.85;133.57;;;11.20;99.90;;;;;;5105785;28;20499;-78
2024/02/08 12:12:45;;;;;;;238.27;133.57;;;11.20;99.90;;;;;;5097921;27;20048;-78
2024/02/08 12:15:12;;;;;;;232.25;130.63;;;11.20;99.90;;;;;;5107408;28;20027;-78
2024/02/08 12:17:40;;;;;;;242.95;132.20;;;11.20;99.90;;;;;;5121896;27;20110;-78
2024/02/08 12:20:16;;;;;;;243.38;131.48;;;11.20;99.90;;;;;;5108255;28;20086;-78
2024/02/08 12:22:42;;;;;;;242.70;129.52;;;11.20;99.90;;;;;;5118336;27;20038;-78
2024/02/08 12:25:15;;;;;;;229.05;128.90;;;11.30;99.90;;;;;;5104788;28;20383;-78
2024/02/08 12:27:48;;;;;;;228.88;129.90;;;11.30;99.90;;;;;;5102800;27;20050;-78
2024/02/08 12:30:21;;;;;;;231.00;130.40;;;11.30;99.90;;;;;;5108573;28;20019;-78
2024/02/08 12:32:50;;;;;;;236.30;127.03;;;11.30;99.90;;;;;;5115480;27;20020;-78
2024/02/08 12:35:20;;;;;;;233.10;127.93;;;11.30;99.90;;;;;;5104111;28;20020;-78
2024/02/08 12:37:47;;;;;;;241.88;133.60;;;11.30;99.90;;;;;;5116597;27;20023;-78
2024/02/08 12:40:17;;;;;;;228.52;124.22;;;11.40;99.90;;;;;;5102523;28;20019;-78
2024/02/08 12:42:43;;;;;;;233.88;125.78;;;11.40;99.90;;;;;;5106192;27;20118;-78
2024/02/08 12:45:11;;;;;;;238.23;128.10;;;11.40;99.90;;;;;;5104990;28;20058;-78
2024/02/08 12:47:49;;;;;;;232.20;127.47;;;11.40;99.90;;;;;;5114085;27;20115;-78
2024/02/08 12:50:16;;;;;;;233.50;128.15;;;11.40;99.90;;;;;;5092842;28;20016;-78
2024/02/08 12:52:43;;;;;;;236.02;133.55;;;11.40;99.90;;;;;;5123925;27;20027;-78
2024/02/08 12:55:13;;;;;;;234.43;130.35;;;11.40;99.90;;;;;;5105641;28;20103;-78
2024/02/08 12:57:40;;;;;;;229.20;123.43;;;11.50;99.90;;;;;;5115616;27;20016;-78
2024/02/08 13:00:08;;;;;;;216.70;120.80;;;11.50;99.90;;;;;;5103892;28;20057;-78
2024/02/08 13:02:34;;;;;;;231.85;126.30;;;11.50;99.90;;;;;;5103380;27;20027;-78
2024/02/08 13:05:03;;;;;;;226.88;122.53;;;11.60;99.90;;;;;;5107153;27;20024;-78
2024/02/08 13:07:29;;;;;;;220.80;122.00;;;11.60;99.90;;;;;;5115243;27;20020;-78
2024/02/08 13:10:03;;;;;;;229.00;125.25;;;11.60;99.90;;;;;;5083795;28;20030;-78
2024/02/08 13:12:30;;;;;;;224.80;124.80;;;11.60;99.90;;;;;;5095558;27;20131;-77
2024/02/08 13:15:05;;;;;;;230.13;125.38;;;11.60;99.90;;;;;;5108181;27;20469;-78
2024/02/08 13:17:33;;;;;;;223.93;124.70;;;11.60;99.90;;;;;;5101268;27;20066;-78
2024/02/08 13:20:11;;;;;;;217.02;121.18;;;11.70;99.90;;;;;;5102034;28;20477;-78
2024/02/08 13:22:37;;;;;;;228.07;123.18;;;11.70;99.90;;;;;;5114422;27;20017;-78
2024/02/08 13:25:03;;;;;;;230.32;127.47;;;11.60;99.90;;;;;;5104363;28;20469;-78
2024/02/08 13:27:28;;;;;;;224.30;126.57;;;11.60;99.90;;;;;;5119026;27;20031;-78
2024/02/08 13:29:59;;;;;;;232.98;127.20;;;11.60;99.90;;;;;;5106674;27;20418;-78
2024/02/08 13:32:31;;;;;;;228.88;126.60;;;11.60;99.90;;;;;;5112793;27;20482;-78
2024/02/08 13:34:57;;;;;;;;;;;11.60;99.90;;;;;;5104504;28;20628;-78
2024/02/08 13:37:26;;;;;;;219.90;124.45;;;11.50;99.90;;;;;;5119133;27;19962;-78
2024/02/08 13:40:06;;;;;;;222.27;122.45;;;11.60;99.90;;;;;;5104098;28;20431;-78
2024/02/08 13:42:33;;;;;;;228.07;130.10;;;11.60;99.90;;;;;;5114116;27;20111;-78
2024/02/08 13:45:01;;;;;;;215.60;122.18;;;11.60;99.90;;;;;;5104153;28;20020;-78
2024/02/08 13:47:30;;;;;;;232.02;127.15;;;11.70;99.90;;;;;;5100013;27;20376;-78
2024/02/08 13:49:59;;;;;;;215.25;122.38;;;11.80;99.90;;;;;;5107014;27;20393;-78
2024/02/08 13:52:25;;;;;;;218.63;129.00;;;11.70;99.90;;;;;;5114276;27;20500;-78
2024/02/08 13:54:54;;;;;;;216.48;122.03;;;11.80;99.90;;;;;;5105603;27;20024;-78
2024/02/08 13:57:23;;;;;;;213.98;122.50;;;11.80;99.90;;;;;;5108495;27;20469;-78
2024/02/08 13:59:48;;;;;;;220.82;127.70;;;11.90;99.90;;;;;;5101064;28;20031;-78
2024/02/08 14:02:15;;;;;;;216.13;126.07;;;12.00;99.90;;;;;;5114759;27;20015;-78
2024/02/08 14:04:50;;;;;;;227.13;122.25;;;12.00;99.90;;;;;;5105918;27;20027;-78
2024/02/08 14:07:25;;;;;;;215.30;122.18;;;12.00;99.90;;;;;;5109453;27;20043;-78
2024/02/08 14:09:58;;;;;;;225.85;120.05;;;12.10;99.90;;;;;;5100792;28;20073;-78
2024/02/08 14:12:28;;;;;;;227.88;121.97;;;12.10;99.90;;;;;;5114678;27;20130;-78
2024/02/08 14:14:57;;;;;;;230.40;120.95;;;12.10;99.90;;;;;;5106004;27;20122;-78
2024/02/08 14:17:27;;;;;;;236.15;124.10;;;12.10;99.90;;;;;;5111388;27;20023;-78
2024/02/08 14:19:55;;;;;;;210.38;116.70;;;12.10;99.90;;;;;;5100538;28;20027;-78
2024/02/08 14:22:24;;;;;;;216.13;120.03;;;12.10;99.90;;;;;;5117771;27;20073;-78
2024/02/08 14:24:52;;;;;;;215.73;120.22;;;12.10;99.90;;;;;;5085600;28;20024;-78
2024/02/08 14:27:19;;;;;;;217.40;117.82;;;12.00;99.90;;;;;;5110589;27;20281;-78
2024/02/08 14:29:46;;;;;;;209.93;116.53;;;12.00;99.90;;;;;;5095001;28;20054;-78
2024/02/08 14:32:13;;;;;;;212.27;123.35;;;11.90;99.90;;;;;;5114046;27;20047;-78
2024/02/08 14:34:43;;;;;;;206.48;122.68;;;11.90;99.90;;;;;;5093979;28;20031;-78
2024/02/08 14:37:10;;;;;;;214.40;120.07;;;11.90;99.90;;;;;;5116071;27;20019;-78
2024/02/08 14:39:37;;;;;;;211.38;118.18;;;11.90;99.90;;;;;;5103894;27;20025;-78
2024/02/08 14:42:11;;;;;;;203.00;117.40;;;11.90;99.90;;;;;;5109581;27;20024;-78
2024/02/08 14:44:44;;;;;;;212.43;115.63;;;11.90;99.90;;;;;;5107474;27;20035;-78
2024/02/08 14:47:15;;;;;;;197.48;115.60;;;11.90;99.90;;;;;;5114318;27;20486;-78
2024/02/08 14:49:58;;;;;;;211.88;123.45;;;11.90;99.90;;;;;;5105030;27;20024;-78
2024/02/08 14:52:43;;;;;;;214.45;119.50;;;11.90;99.90;;;;;;5109250;27;20052;-78
2024/02/08 14:55:10;;;;;;;212.57;125.43;;;11.80;99.90;;;;;;5100665;28;20279;-78
2024/02/08 14:57:42;;;;;;;213.23;118.97;;;11.80;99.90;;;;;;5118847;27;20016;-78
2024/02/08 15:02:56;;;;;;;211.20;122.32;;;11.80;99.90;;;;;;5111718;27;20122;-78
2024/02/08 15:11:02;;;;;;;208.88;119.07;;;11.80;99.90;;;;;;5104519;27;20027;-78
2024/02/08 15:13:37;;;;;;;210.27;127.17;;;11.80;99.90;;;;;;5105235;28;20024;-78
2024/02/08 15:16:07;;;;;;;212.10;121.60;;;11.70;99.90;;;;;;5105777;28;20012;-78
2024/02/08 15:18:47;;;;;;;206.38;120.07;;;11.70;99.90;;;;;;5093986;28;20035;-78
2024/02/08 15:21:23;;;;;;;203.52;119.55;;;11.80;99.90;;;;;;5107704;27;19999;-78
2024/02/08 15:26:37;;;;;;;215.98;127.55;;;11.70;99.90;;;;;;5109003;28;20479;-78
2024/02/08 15:29:04;;;;;;;217.00;118.18;;;11.70;99.90;;;;;;5107269;28;20024;-78
2024/02/08 15:31:45;;;;;;;210.32;121.97;;;11.60;99.90;;;;;;5112758;28;20028;-78
2024/02/08 15:36:47;;;;;;;213.95;126.05;;;11.50;99.90;;;;;;5115079;27;20075;-78
2024/02/08 15:42:02;;;;;;;212.52;123.45;;;11.50;99.90;;;;;;5116697;27;20108;-78
2024/02/08 15:44:34;;;;;;;210.85;119.93;;;11.40;99.90;;;;;;5109962;27;20024;-78
2024/02/08 15:47:00;;;;;;;;;;;11.40;99.90;;;;;;5115820;27;20322;-78
2024/02/08 15:49:28;;;;;;;230.98;125.85;;;11.40;99.90;;;;;;5095361;28;20253;-78
2024/02/08 15:51:55;;;;;;;231.77;137.25;;;11.30;99.90;;;;;;5116221;27;20023;-78
2024/02/08 15:54:23;;;;;;;220.50;126.38;;;11.30;99.90;;;;;;5111308;27;20036;-78
2024/02/08 15:56:53;;;;;;;212.50;124.75;;;11.30;99.90;;;;;;5117312;27;20037;-78
2024/02/08 15:59:22;;;;;;;233.38;132.20;;;11.30;99.90;;;;;;5106249;27;20016;-78
2024/02/08 16:01:52;;;;;;;231.18;130.57;;;11.20;99.90;;;;;;5099163;28;20015;-78
2024/02/08 16:07:14;;;;;;;229.02;127.53;;;11.20;99.90;;;;;;5117663;27;20385;-78
2024/02/08 16:09:45;;;;;;;234.45;134.18;;;11.20;99.90;;;;;;5096866;28;20036;-78
2024/02/08 16:15:17;;;;;;;227.02;128.50;;;11.20;99.90;;;;;;5065229;28;20293;-78
2024/02/08 16:18:00;;;;;;;242.07;137.45;;;11.10;99.90;;;;;;5121652;27;20155;-78
2024/02/08 16:20:26;;;;;;;235.43;133.57;;;11.10;99.90;;;;;;5107340;27;20106;-78
2024/02/08 16:23:13;;;;;;;235.27;133.00;;;11.10;99.90;;;;;;5116934;27;20024;-78
2024/02/08 16:25:45;;;;;;;236.63;131.30;;;11.00;99.90;;;;;;5107485;27;20019;-78
2024/02/08 16:28:20;;;;;;;244.85;143.00;;;11.00;99.90;;;;;;5103525;28;20487;-78
2024/02/08 16:39:29;;;;;;;251.77;146.35;;;10.90;99.90;;;;;;5110231;27;20081;-78
2024/02/08 16:42:00;;;;;;;243.68;138.18;;;10.90;99.90;;;;;;5116204;27;20490;-78
2024/02/08 16:44:30;;;;;;;245.77;137.10;;;10.80;99.90;;;;;;5094438;28;20393;-78
2024/02/08 16:46:59;;;;;;;240.52;143.27;;;10.80;99.90;;;;;;5097708;28;20400;-78
2024/02/08 16:49:27;;;;;;;243.57;133.70;;;10.80;99.90;;;;;;5109556;27;20111;-78
2024/02/08 16:51:55;;;;;;;243.50;144.50;;;10.80;99.90;;;;;;5118299;27;20068;-78
2024/02/08 16:54:34;;;;;;;239.82;141.10;;;10.70;99.90;;;;;;5106407;27;20036;-78
2024/02/08 16:57:07;;;;;;;242.15;136.32;;;10.80;99.90;;;;;;5112028;27;20077;-78
2024/02/08 16:59:44;;;;;;;242.98;138.52;;;10.70;99.90;;;;;;5097737;28;20464;-78
2024/02/08 17:02:16;;;;;;;235.30;138.43;;;10.80;99.90;;;;;;5104139;28;20028;-78
2024/02/08 17:04:48;;;;;;;;;;;10.70;99.90;;;;;;5108105;27;20089;-78
2024/02/08 17:10:08;;;;;;;242.45;144.55;;;10.60;99.90;;;;;;5105506;27;20039;-78
2024/02/08 17:15:27;;;;;;;267.33;155.10;;;10.60;99.90;;;;;;5108997;27;20115;-78
2024/02/08 17:18:01;;;;;;;266.27;153.90;;;10.50;99.90;;;;;;5115119;27;20026;-78
2024/02/08 17:23:41;;;;;;;256.55;147.15;;;10.50;99.90;;;;;;5028717;28;20041;-78
2024/02/08 17:26:15;;;;;;;252.98;142.10;;;10.60;99.90;;;;;;5112489;27;20506;-78
2024/02/08 17:29:06;;;;;;;257.63;149.43;;;10.60;99.90;;;;;;5107897;27;20024;-78
2024/02/08 17:31:33;;;;;;;261.60;149.37;;;10.60;99.90;;;;;;5097992;27;20088;-78
2024/02/08 17:34:09;;;;;;;268.02;147.93;;;10.60;99.90;;;;;;5108173;27;20316;-78
2024/02/08 17:36:45;;;;;;;269.60;149.70;;;10.60;99.90;;;;;;5097380;27;20397;-78
2024/02/08 17:39:11;;;;;;;251.20;145.85;;;10.60;99.90;;;;;;5106770;27;20496;-78
2024/02/08 17:41:38;;;;;;;263.60;152.55;;;10.60;99.90;;;;;;5094250;27;20027;-78
2024/02/08 17:44:04;;;;;;;268.23;155.48;;;10.50;99.90;;;;;;5103513;28;20043;-76
2024/02/08 17:46:30;;;;;;;268.63;154.68;;;10.50;99.90;;;;;;5110641;27;20071;-76
2024/02/08 17:48:56;;;;;;;264.67;154.70;;;10.50;99.90;;;;;;5106087;27;20027;-78
2024/02/08 17:51:31;;;;;;;309.48;185.05;;;10.50;99.90;;;;;;5106147;27;20046;-78
2024/02/08 17:54:06;;;;;;;329.83;196.50;;;10.50;99.90;;;;;;5101802;27;20106;-78
2024/02/08 17:56:41;;;;;;;294.67;175.95;;;10.50;99.90;;;;;;5106377;27;20016;-79
2024/02/08 17:59:11;;;;;;;277.33;163.60;;;10.50;99.90;;;;;;5110083;27;20004;-77
2024/02/08 18:01:55;;;;;;;273.52;159.75;;;10.50;99.90;;;;;;5107113;27;20016;-76
2024/02/08 18:04:25;;;;;;;266.45;151.18;;;10.50;99.90;;;;;;5087454;28;20036;-78
2024/02/08 18:06:57;;;;;;;261.27;150.77;;;10.50;99.90;;;;;;5105425;27;20019;-76
2024/02/08 18:09:29;;;;;;;259.58;152.05;;;10.50;99.90;;;;;;5109683;27;20475;-76
2024/02/08 18:12:03;;;;;;;270.08;153.65;;;10.40;99.90;;;;;;5110755;27;20834;-76
2024/02/08 18:14:31;;;;;;;250.70;151.00;;;10.40;99.90;;;;;;5103098;27;20059;-78
2024/02/08 18:17:02;;;;;;;274.55;159.43;;;10.40;99.90;;;;;;5092025;28;20020;-79
2024/02/08 18:19:36;;;;;;;275.77;158.80;;;10.40;99.90;;;;;;5091842;28;20023;-76
2024/02/08 18:22:03;;;;;;;274.58;154.15;;;10.50;99.90;;;;;;5114558;27;20574;-76
2024/02/08 18:24:28;;;;;;;263.15;154.55;;;10.40;99.90;;;;;;5100325;27;20446;-76
2024/02/08 18:27:00;;;;;;;272.35;152.48;;;10.50;99.90;;;;;;5109124;27;20115;-76
2024/02/08 18:29:27;;;;;;;261.55;152.80;;;10.40;99.90;;;;;;5097293;28;20016;-76
2024/02/08 18:31:53;;;;;;;280.25;159.55;;;10.40;99.90;;;;;;5096427;27;20023;-76
2024/02/08 18:34:21;;;;;;;256.73;155.45;;;10.40;99.90;;;;;;5104172;27;20028;-76
2024/02/08 18:36:47;;;;;;;278.30;159.00;;;10.30;99.90;;;;;;5109521;27;20038;-76
2024/02/08 18:39:32;;;;;;;274.77;156.68;;;10.30;99.90;;;;;;5098035;27;20028;-78
2024/02/08 18:42:00;;;;;;;279.38;157.73;;;10.30;99.90;;;;;;5112423;27;20019;-78
2024/02/08 18:44:32;;;;;;;278.42;161.38;;;10.30;99.90;;;;;;5102784;27;20047;-78
2024/02/08 18:46:59;;;;;;;265.25;151.32;;;10.30;99.90;;;;;;5111032;27;20031;-78
2024/02/08 18:49:25;;;;;;;272.10;157.27;;;10.30;99.90;;;;;;5098020;27;20081;-79
2024/02/08 18:51:54;;;;;;;275.95;162.82;;;10.30;99.90;;;;;;5106457;27;20033;-78
2024/02/08 18:54:28;;;;;;;283.92;158.00;;;10.30;99.90;;;;;;5102409;27;20380;-76
2024/02/08 18:56:58;;;;;;;266.67;155.18;;;10.30;99.90;;;;;;5111096;27;20457;-78
2024/02/08 18:59:25;;;;;;;263.73;153.70;;;10.30;99.90;;;;;;5102427;28;20419;-78
2024/02/08 19:01:58;;;;;;;275.17;155.80;;;10.30;99.90;;;;;;5106673;27;20657;-78
2024/02/08 19:04:24;;;;;;;280.42;163.07;;;10.30;99.90;;;;;;5102672;27;20448;-78
2024/02/08 19:06:50;;;;;;;276.75;159.88;;;10.20;99.90;;;;;;5096876;27;20118;-78
2024/02/08 19:09:19;;;;;;;282.10;159.65;;;10.30;99.90;;;;;;5104129;27;20034;-78
2024/02/08 19:11:49;;;;;;;267.08;154.70;;;10.30;99.90;;;;;;5092791;27;20420;-75
2024/02/08 19:14:16;;;;;;;268.13;156.82;;;10.30;99.90;;;;;;5096278;28;20366;-78
2024/02/08 19:16:43;;;;;;;263.38;154.05;;;10.30;99.90;;;;;;5116851;27;20023;-77
2024/02/08 19:19:10;;;;;;;260.17;153.00;;;10.30;99.90;;;;;;5097563;28;20012;-75
2024/02/08 19:21:41;;;;;;;271.40;159.20;;;10.30;99.90;;;;;;5104270;27;20468;-78
2024/02/08 19:24:12;;;;;;;273.70;157.85;;;10.30;99.90;;;;;;5088266;28;20077;-78
2024/02/08 19:26:40;;;;;;;267.58;158.75;;;10.30;99.90;;;;;;5092676;28;20434;-78
2024/02/08 19:29:06;;;;;;;262.73;155.00;;;10.30;99.90;;;;;;5099698;27;20088;-79
2024/02/08 19:31:36;;;;;;;270.08;156.25;;;10.30;99.90;;;;;;5107869;28;20058;-79
2024/02/08 19:34:07;;;;;;;274.98;159.43;;;10.30;99.90;;;;;;5100520;28;20088;-78
2024/02/08 19:36:33;;;;;;;273.92;154.48;;;10.30;99.90;;;;;;5089530;28;20452;-78
2024/02/08 19:41:49;;;;;;;262.15;153.82;;;10.30;99.90;;;;;;5111030;28;20429;-78
2024/02/08 19:44:23;;;;;;;275.10;154.88;;;10.30;99.90;;;;;;5100524;28;20024;-78
2024/02/08 19:46:58;;;;;;;275.65;159.35;;;10.30;99.90;;;;;;5103291;28;20427;-78
2024/02/08 19:49:29;;;;;;;273.83;160.20;;;10.30;99.90;;;;;;5103582;28;20020;-78
2024/02/08 19:51:59;;;;;;;269.05;156.23;;;10.30;99.90;;;;;;5112085;28;20812;-79
2024/02/08 19:54:37;;;;;;;276.92;163.07;;;10.30;99.90;;;;;;5099877;28;20027;-78
2024/02/08 19:57:12;;;;;;;270.10;158.10;;;10.30;99.90;;;;;;5106835;28;20048;-78
2024/02/08 19:59:42;;;;;;;265.75;153.70;;;10.30;99.90;;;;;;5097862;28;20477;-76
2024/02/08 20:02:23;;;;;;;274.10;160.48;;;10.20;99.90;;;;;;5098779;28;20064;-78
2024/02/08 20:04:58;;;;;;;265.13;155.07;;;10.30;99.90;;;;;;5094955;28;20067;-78
2024/02/08 20:07:31;;;;;;;269.02;148.95;;;10.30;99.90;;;;;;5107467;28;20028;-78
2024/02/08 20:10:01;;;;;;;259.08;149.23;;;10.30;99.90;;;;;;5101005;28;20023;-78
2024/02/08 20:12:26;;;;;;;256.17;148.20;;;10.30;99.90;;;;;;5108873;28;20047;-76
2024/02/08 20:14:52;;;;;;;254.57;147.15;;;10.30;99.90;;;;;;5099893;28;20036;-78
2024/02/08 20:17:19;;;;;;;259.65;150.00;;;10.30;99.90;;;;;;5109779;28;20072;-78
2024/02/08 20:19:47;;;;;;;253.48;150.00;;;10.30;99.90;;;;;;5099524;28;20381;-78
2024/02/08 20:22:17;;;;;;;253.35;149.40;;;10.30;99.90;;;;;;5106142;27;20121;-78
2024/02/08 20:24:47;;;;;;;256.60;144.02;;;10.20;99.90;;;;;;5106524;27;20028;-78
2024/02/08 20:27:20;;;;;;;241.38;139.43;;;10.20;99.90;;;;;;5117060;27;20030;-78
2024/02/08 20:29:48;;;;;;;240.80;142.02;;;10.20;99.90;;;;;;5108888;27;20066;-78
2024/02/08 20:32:15;;;;;;;245.52;142.88;;;10.20;99.90;;;;;;5109095;27;20035;-76
2024/02/08 20:34:40;;;;;;;248.23;141.88;;;10.20;99.90;;;;;;5096173;28;20039;-76
2024/02/08 20:37:13;;;;;;;261.80;150.77;;;10.20;99.90;;;;;;5112740;27;20519;-78
2024/02/08 20:39:42;;;;;;;255.90;144.18;;;10.20;99.90;;;;;;5091489;28;20031;-78
2024/02/08 20:42:12;;;;;;;243.18;140.40;;;10.20;99.90;;;;;;5109135;27;20016;-78
2024/02/08 20:44:43;;;;;;;234.55;136.50;;;10.20;99.90;;;;;;5091273;28;20031;-79
2024/02/08 20:47:12;;;;;;;235.02;140.57;;;10.20;99.90;;;;;;5109547;27;20046;-78
2024/02/08 20:49:42;;;;;;;236.63;139.55;;;10.20;99.90;;;;;;5090428;28;20153;-78
2024/02/08 20:52:12;;;;;;;241.20;135.38;;;10.20;99.90;;;;;;5108153;27;20023;-78
2024/02/08 20:54:40;;;;;;;230.90;134.05;;;10.20;99.90;;;;;;5095931;28;20027;-78
2024/02/08 20:57:10;;;;;;;254.75;143.85;;;10.20;99.90;;;;;;5094276;28;20469;-76
2024/02/08 20:59:43;;;;;;;230.43;135.00;;;10.20;99.90;;;;;;5107945;27;20517;-79
2024/02/08 21:02:15;;;;;;;223.30;132.07;;;10.10;99.90;;;;;;5091488;28;20410;-79
2024/02/08 21:04:42;;;;;;;223.88;130.35;;;10.10;99.90;;;;;;5090936;28;20161;-76
2024/02/08 21:07:08;;;;;;;212.48;123.07;;;10.10;99.90;;;;;;5106975;27;20051;-76
2024/02/08 21:09:34;;;;;;;214.52;126.38;;;10.10;99.90;;;;;;5099346;28;20060;-76
2024/02/08 21:11:59;;;;;;;213.23;119.65;;;10.10;99.90;;;;;;5112551;27;20070;-76
2024/02/08 21:14:26;;;;;;;223.57;120.75;;;10.10;99.90;;;;;;5098318;28;20460;-76
2024/02/08 21:16:53;;;;;;;549.85;418.08;;;10.20;99.90;;;;;;5097469;28;20441;-76
2024/02/08 21:19:20;;;;;;;661.30;532.60;;;10.30;99.90;;;;;;5102466;28;20453;-77
2024/02/08 21:21:47;;;;;;;487.30;380.55;;;10.40;99.90;;;;;;5113871;27;20030;-76
2024/02/08 21:24:13;;;;;;;290.67;185.43;;;10.50;99.90;;;;;;5111258;27;20015;-76
2024/02/08 21:26:47;;;;;;;236.80;137.45;;;10.40;99.90;;;;;;5092695;28;20346;-76
2024/02/08 21:29:14;;;;;;;224.77;131.30;;;10.40;99.90;;;;;;5108836;28;20017;-78
2024/02/08 21:31:45;;;;;;;200.48;118.10;;;10.30;99.90;;;;;;5089513;28;20024;-79
2024/02/08 21:34:14;;;;;;;206.55;120.97;;;10.30;99.90;;;;;;5102015;28;20110;-79
2024/02/08 21:36:42;;;;;;;191.88;112.57;;;10.30;99.90;;;;;;5105049;28;20028;-78